SBOSBO UVF / TLPL
Speedbird OnlineSpeedbird Online UVF / TLPL

Hewanorra International Airport
03:26 26.7°C

Location Hewandorra, Saint Lucia
Latitude: 13.7332
Longitude: -60.952599
Web Airport Website | Wikipedia
Altitude 4 Meter / 14 Feet
Distance 6,832 KM / 4,245 Miles
from London.
Time Zone UTC -4 hours (America/St_Lucia)
Codes IATA: UVF
ICAO: TLPL
Currency £1 equals XCD 3.06
Runways
RunwayLength (m)Surface
102744Asphalt
282744Asphalt
Radio
TypeDescriptionFrequency
APPST LUCIA APP119.8
GNDGND121.6
TWRTWR118.3
Live ATC
METAR TLPL 060200Z 10022KT 9999 FEW017CB SCT044 27/23 Q1012 NOSIG
TAF TAF TLPL 052300Z 0600/0624 10020G30KT 9999 FEW018CB SCT025 TEMPO 0600/0612 5000 SHRA SCT015CB BKN020 PROB30 TEMPO 0412 3000 TSRA
Weather As Of 06 Oct 2022 03:26
Description Overcast clouds
Wind 30 km/h from East (88°)
Cloud Cover 100%
Precipitation Rain: none, Snow: none
Sunrise 05:53
Sunset 17:50
Lounges Iyanola Executive Lounge , Main Terminal
Rotations During the last 90 days there were
57 flights from LGW
43 flights from POS
15 flights from GND
63 flights to LGW
43 flights to POS
22 flights to GND


© 2017-2022 Speedbird Online